Time;durP1;ratioP1;P1;durP2;ratioP2;P2;SDS_P1;SDS_P2;PMS_P1;PMS_P2;Temp;Humidity;BMP_temperature;BMP_pressure;BME280_temperature;BME280_humidity;BME280_pressure;Samples;Min_cycle;Max_cycle;Signal;HPM_P1;HPM_P2
2022/11/01 00:02:11;;;;;;;3.20;2.87;;;17.00;82.40;;;;;;5026937;28;20525;-71
2022/11/01 00:04:40;;;;;;;3.80;3.50;;;17.00;82.50;;;;;;5027744;28;20518;-72
2022/11/01 00:07:08;;;;;;;4.93;2.67;;;17.00;82.60;;;;;;5055010;28;20523;-73
2022/11/01 00:09:37;;;;;;;3.30;2.60;;;17.00;82.60;;;;;;5023782;28;20493;-73
2022/11/01 00:12:05;;;;;;;3.00;2.43;;;17.00;82.60;;;;;;5050587;28;20735;-70
2022/11/01 00:14:35;;;;;;;3.13;2.50;;;17.00;82.60;;;;;;5055179;28;20435;-73
2022/11/01 00:17:04;;;;;;;3.43;3.13;;;17.00;82.70;;;;;;5053038;28;20565;-73
2022/11/01 00:19:32;;;;;;;4.43;3.40;;;17.00;82.70;;;;;;5049639;28;20455;-72
2022/11/01 00:22:15;;;;;;;3.77;2.90;;;17.00;82.80;;;;;;5051387;28;20478;-73
2022/11/01 00:25:18;;;;;;;3.83;2.87;;;17.00;82.90;;;;;;5018594;28;20535;-72
2022/11/01 00:28:06;;;;;;;4.17;3.53;;;17.00;82.90;;;;;;4996425;28;20477;-72
2022/11/01 00:31:10;;;;;;;4.10;3.70;;;16.90;82.80;;;;;;5052040;28;20442;-72
2022/11/01 00:34:00;;;;;;;3.77;3.17;;;16.90;83.00;;;;;;5012902;28;20538;-72
2022/11/01 00:36:46;;;;;;;4.20;3.00;;;17.00;83.10;;;;;;5046898;28;20442;-72
2022/11/01 00:39:40;;;;;;;4.13;3.70;;;17.00;83.10;;;;;;5025099;28;20459;-73
2022/11/01 00:42:15;;;;;;;4.77;2.80;;;17.00;83.10;;;;;;5049499;23;20950;-54
2022/11/01 00:44:43;;;;;;;2.70;2.50;;;16.90;83.10;;;;;;5047755;28;20837;-52
2022/11/01 00:47:13;;;;;;;7.70;4.73;;;16.90;83.00;;;;;;5067771;28;20854;-50
2022/11/01 00:49:42;;;;;;;3.50;2.97;;;16.90;83.00;;;;;;5061139;28;20434;-50
2022/11/01 00:52:10;;;;;;;8.10;3.00;;;16.90;83.10;;;;;;5072101;28;20466;-50
2022/11/01 00:54:39;;;;;;;3.97;2.27;;;16.90;83.10;;;;;;5055373;28;20426;-53
2022/11/01 00:57:07;;;;;;;4.00;2.73;;;16.90;83.10;;;;;;5063372;28;20529;-51
2022/11/01 00:59:36;;;;;;;3.77;2.83;;;16.90;83.10;;;;;;5050822;28;20477;-50
2022/11/01 01:02:08;;;;;;;3.63;2.70;;;16.90;83.20;;;;;;5051252;28;20502;-52
2022/11/01 01:04:41;;;;;;;2.60;2.27;;;16.90;83.10;;;;;;5052116;28;20481;-51
2022/11/01 01:07:10;;;;;;;3.97;2.60;;;16.90;83.20;;;;;;5052348;28;20916;-52
2022/11/01 01:09:38;;;;;;;2.50;2.30;;;16.90;83.20;;;;;;5055009;28;20445;-51
2022/11/01 01:12:08;;;;;;;3.07;2.70;;;17.00;83.40;;;;;;5063584;28;21015;-49
2022/11/01 01:14:36;;;;;;;4.90;2.83;;;16.90;83.20;;;;;;5054296;28;20841;-51
2022/11/01 01:17:05;;;;;;;4.77;3.30;;;16.90;83.30;;;;;;5051504;28;21085;-51
2022/11/01 01:19:33;;;;;;;4.67;3.40;;;16.90;83.40;;;;;;5060123;28;20431;-50
2022/11/01 01:22:07;;;;;;;5.40;3.07;;;17.00;83.50;;;;;;5041919;28;20482;-52
2022/11/01 01:24:35;;;;;;;3.00;2.73;;;16.90;83.60;;;;;;5052041;28;20438;-50
2022/11/01 01:27:04;;;;;;;2.90;2.60;;;16.90;83.60;;;;;;5051219;28;20470;-53
2022/11/01 01:29:33;;;;;;;3.53;3.00;;;16.90;83.60;;;;;;5058501;28;20525;-51
2022/11/01 01:32:02;;;;;;;3.33;2.70;;;16.90;83.70;;;;;;5051404;28;20462;-51
2022/11/01 01:34:33;;;;;;;3.80;2.90;;;16.90;83.60;;;;;;5060801;28;20438;-52
2022/11/01 01:37:01;;;;;;;3.20;2.90;;;16.90;83.70;;;;;;5054040;28;20496;-49
2022/11/01 01:39:31;;;;;;;3.00;2.63;;;16.90;83.60;;;;;;5064810;28;20970;-50
2022/11/01 01:42:01;;;;;;;3.20;2.80;;;16.90;83.80;;;;;;5055961;28;20480;-50
2022/11/01 01:45:06;;;;;;;4.00;2.50;;;16.90;83.90;;;;;;5043602;28;20814;-52
2022/11/01 01:47:37;;;;;;;3.60;2.20;;;16.90;83.70;;;;;;5037385;28;20465;-51
2022/11/01 01:50:10;;;;;;;2.83;2.43;;;16.90;83.90;;;;;;5050124;28;20691;-51
2022/11/01 01:52:47;;;;;;;5.10;2.87;;;16.90;83.90;;;;;;5047065;28;20892;-52
2022/11/01 01:55:21;;;;;;;3.43;2.57;;;16.90;84.20;;;;;;5046178;28;20533;-51
2022/11/01 01:57:51;;;;;;;3.13;2.70;;;16.90;84.30;;;;;;5050087;28;20972;-51
2022/11/01 02:00:20;;;;;;;3.07;2.27;;;16.90;84.50;;;;;;5052427;28;20784;-51
2022/11/01 02:02:49;;;;;;;4.10;2.50;;;16.90;84.60;;;;;;5059259;28;20836;-52
2022/11/01 02:05:30;;;;;;;3.30;2.43;;;16.90;84.30;;;;;;5038433;28;20809;-51
2022/11/01 02:08:00;;;;;;;3.70;2.73;;;16.90;84.60;;;;;;5039454;28;20475;-51
2022/11/01 02:10:32;;;;;;;3.80;2.43;;;16.90;84.50;;;;;;5047906;28;20562;-51
2022/11/01 02:13:00;;;;;;;3.33;2.73;;;16.90;84.80;;;;;;5036712;28;20478;-50
2022/11/01 02:15:36;;;;;;;3.87;2.90;;;16.90;86.00;;;;;;5068916;28;20442;-51
2022/11/01 02:18:18;;;;;;;3.17;2.53;;;16.90;84.70;;;;;;5057516;28;20458;-52
2022/11/01 02:21:03;;;;;;;3.50;3.20;;;16.90;84.80;;;;;;5040069;28;20442;-51
2022/11/01 02:24:07;;;;;;;3.33;2.77;;;16.90;84.80;;;;;;5051750;28;20453;-50
2022/11/01 02:27:02;;;;;;;3.57;2.23;;;16.90;84.90;;;;;;5050697;28;20438;-52
2022/11/01 02:30:04;;;;;;;5.17;2.87;;;16.90;85.00;;;;;;5067258;28;20508;-51
2022/11/01 02:32:56;;;;;;;2.60;2.40;;;16.90;85.10;;;;;;5053671;28;21043;-54
2022/11/01 02:35:31;;;;;;;2.90;2.60;;;16.90;84.90;;;;;;5049232;28;20449;-52
2022/11/01 02:38:06;;;;;;;3.63;2.63;;;16.90;84.90;;;;;;5052196;28;20474;-52
2022/11/01 02:40:43;;;;;;;2.87;2.67;;;16.90;84.70;;;;;;5063538;28;20441;-50
2022/11/01 02:43:18;;;;;;;3.33;3.03;;;16.90;84.90;;;;;;5046954;28;20592;-52
2022/11/01 02:45:49;;;;;;;2.43;2.17;;;16.90;84.90;;;;;;5043340;28;20492;-50
2022/11/01 02:48:21;;;;;;;3.90;2.63;;;16.90;84.90;;;;;;5049559;28;20470;-49
2022/11/01 02:50:54;;;;;;;3.27;2.73;;;16.90;84.80;;;;;;5043622;28;20460;-52
2022/11/01 02:53:23;;;;;;;2.73;2.50;;;16.90;84.80;;;;;;5069339;28;20959;-51
2022/11/01 02:55:52;;;;;;;2.73;1.90;;;16.90;84.80;;;;;;5052643;28;20492;-52
2022/11/01 02:58:23;;;;;;;3.40;2.27;;;16.90;84.90;;;;;;5065641;28;20925;-51
2022/11/01 03:00:54;;;;;;;2.90;2.70;;;16.90;84.90;;;;;;5062868;28;20444;-51
2022/11/01 03:03:31;;;;;;;3.67;2.53;;;16.90;84.80;;;;;;5055134;28;20436;-51
2022/11/01 03:06:07;;;;;;;3.20;2.37;;;16.90;84.70;;;;;;5043348;28;20455;-53
2022/11/01 03:08:41;;;;;;;3.20;2.70;;;16.90;84.80;;;;;;5043788;28;20494;-52
2022/11/01 03:11:12;;;;;;;2.50;2.30;;;16.90;84.90;;;;;;5039969;28;20451;-52
2022/11/01 03:13:52;;;;;;;3.43;2.40;;;16.90;84.90;;;;;;5051474;28;20446;-51
2022/11/01 03:16:28;;;;;;;2.57;2.03;;;16.90;84.80;;;;;;5046472;28;20446;-50
2022/11/01 03:19:08;;;;;;;2.73;2.27;;;16.90;85.00;;;;;;5046959;28;20952;-51
2022/11/01 03:21:41;;;;;;;2.93;2.40;;;16.90;86.30;;;;;;5051434;28;20462;-51
2022/11/01 03:24:20;;;;;;;3.33;2.00;;;16.90;84.90;;;;;;5054629;28;20435;-51
2022/11/01 03:26:54;;;;;;;2.97;2.50;;;16.90;84.70;;;;;;5078254;28;20443;-51
2022/11/01 03:29:25;;;;;;;4.03;2.40;;;16.80;84.70;;;;;;5046315;28;20992;-51
2022/11/01 03:31:55;;;;;;;2.70;2.50;;;16.90;84.90;;;;;;5052585;28;20469;-52
2022/11/01 03:34:26;;;;;;;2.60;2.40;;;16.90;84.80;;;;;;5053675;28;20435;-52
2022/11/01 03:37:00;;;;;;;3.67;2.40;;;16.90;84.70;;;;;;5062024;28;20485;-51
2022/11/01 03:39:34;;;;;;;3.13;2.00;;;16.90;84.70;;;;;;5055244;28;20430;-50
2022/11/01 03:42:05;;;;;;;2.37;2.17;;;16.80;84.70;;;;;;5054157;28;20826;-51
2022/11/01 03:44:39;;;;;;;2.77;2.43;;;16.80;84.60;;;;;;5043121;28;20473;-51
2022/11/01 03:47:09;;;;;;;2.60;2.40;;;16.80;84.70;;;;;;5047000;28;20933;-52
2022/11/01 03:49:39;;;;;;;3.37;3.10;;;16.80;84.60;;;;;;5053640;28;20561;-52
2022/11/01 03:52:07;;;;;;;2.90;2.47;;;16.90;84.60;;;;;;5061663;28;20485;-51
2022/11/01 03:54:36;;;;;;;3.00;2.30;;;16.80;84.60;;;;;;5070092;28;20438;-52
2022/11/01 03:57:05;;;;;;;2.47;2.20;;;16.80;84.60;;;;;;5069943;28;20516;-49
2022/11/01 03:59:33;;;;;;;4.03;2.20;;;16.90;84.70;;;;;;5052710;28;20465;-52
2022/11/01 04:02:02;;;;;;;2.90;2.13;;;16.80;84.70;;;;;;5056491;28;20872;-50
2022/11/01 04:04:30;;;;;;;2.70;2.50;;;16.80;84.60;;;;;;5053152;28;20963;-51
2022/11/01 04:07:00;;;;;;;3.30;2.40;;;16.90;84.90;;;;;;5064935;28;20494;-50
2022/11/01 04:09:29;;;;;;;2.70;2.10;;;16.80;84.70;;;;;;5050767;28;20474;-51
2022/11/01 04:11:57;;;;;;;2.40;2.20;;;16.90;85.00;;;;;;5052528;28;20588;-51
2022/11/01 04:22:44;;;;;;;2.10;1.90;;;16.80;84.80;;;;;;5049863;28;20572;-51
2022/11/01 04:25:13;;;;;;;2.53;2.30;;;16.80;84.70;;;;;;5051658;28;20430;-51
2022/11/01 04:27:41;;;;;;;4.13;2.07;;;16.80;84.70;;;;;;5045474;28;20544;-51
2022/11/01 04:30:11;;;;;;;2.40;2.20;;;16.80;84.70;;;;;;5070129;28;20434;-51
2022/11/01 04:32:43;;;;;;;2.57;2.20;;;16.80;84.70;;;;;;5052258;28;20474;-50
2022/11/01 04:35:11;;;;;;;4.13;2.50;;;16.80;84.60;;;;;;5065010;28;20794;-50
2022/11/01 04:37:40;;;;;;;2.70;2.50;;;16.90;84.70;;;;;;5047321;28;20474;-51
2022/11/01 04:40:12;;;;;;;2.83;2.60;;;16.80;84.60;;;;;;5052358;28;20941;-49
2022/11/01 04:42:41;;;;;;;4.73;2.30;;;16.80;84.60;;;;;;5040539;28;21070;-51
2022/11/01 04:45:10;;;;;;;3.27;2.53;;;16.80;84.60;;;;;;5044694;28;20445;-50
2022/11/01 04:47:38;;;;;;;2.40;2.13;;;16.90;84.70;;;;;;5052652;28;20469;-51
2022/11/01 04:50:07;;;;;;;1.97;1.70;;;16.90;84.60;;;;;;5050184;28;20435;-54
2022/11/01 04:52:36;;;;;;;2.30;2.10;;;16.80;84.60;;;;;;5064788;28;20480;-51
2022/11/01 04:55:05;;;;;;;2.20;2.00;;;16.80;84.60;;;;;;5048909;28;20435;-51
2022/11/01 04:57:39;;;;;;;2.50;2.27;;;16.80;84.60;;;;;;5042564;28;20974;-51
2022/11/01 05:00:10;;;;;;;2.40;1.97;;;16.80;84.60;;;;;;5069810;28;20433;-51
2022/11/01 05:02:40;;;;;;;3.50;2.30;;;16.90;84.60;;;;;;5060328;28;20471;-52
2022/11/01 05:05:11;;;;;;;2.03;1.80;;;16.80;84.40;;;;;;5068769;28;20457;-51
2022/11/01 05:07:40;;;;;;;1.93;1.83;;;16.80;84.60;;;;;;5050287;28;20482;-51
2022/11/01 05:10:10;;;;;;;1.80;1.70;;;16.80;84.60;;;;;;5060303;28;20474;-52
2022/11/01 05:12:40;;;;;;;3.10;2.30;;;16.80;84.60;;;;;;5058572;28;20510;-51
2022/11/01 05:15:09;;;;;;;3.10;2.00;;;16.80;84.50;;;;;;5052551;28;20842;-51
2022/11/01 05:17:41;;;;;;;3.70;2.60;;;16.80;84.40;;;;;;5052392;28;20542;-51
2022/11/01 05:20:11;;;;;;;2.40;2.20;;;16.80;84.40;;;;;;5044899;28;20434;-50
2022/11/01 05:22:39;;;;;;;2.67;2.20;;;16.80;84.40;;;;;;5048627;28;20577;-53
2022/11/01 05:25:09;;;;;;;2.67;2.47;;;16.80;84.40;;;;;;5068936;28;20453;-51
2022/11/01 05:27:39;;;;;;;2.70;2.10;;;16.80;84.40;;;;;;5044783;28;20986;-53
2022/11/01 05:30:09;;;;;;;3.10;2.00;;;16.80;84.40;;;;;;5069454;28;20549;-50
2022/11/01 05:32:37;;;;;;;2.37;2.17;;;16.80;84.40;;;;;;5051366;28;20523;-50
2022/11/01 05:35:06;;;;;;;3.20;2.40;;;16.80;84.50;;;;;;5051716;28;20880;-52
2022/11/01 05:37:38;;;;;;;1.77;1.67;;;16.80;84.20;;;;;;5048563;28;20901;-50
2022/11/01 05:40:08;;;;;;;2.37;2.17;;;16.80;84.20;;;;;;5060962;28;20454;-50
2022/11/01 05:42:39;;;;;;;2.37;1.90;;;16.80;84.10;;;;;;5035513;28;20477;-51
2022/11/01 05:45:09;;;;;;;5.03;2.30;;;16.80;84.10;;;;;;5067808;28;20444;-52
2022/11/01 05:47:39;;;;;;;3.00;2.20;;;16.80;84.00;;;;;;5054318;28;20861;-52
2022/11/01 05:50:09;;;;;;;2.63;2.37;;;16.80;84.00;;;;;;5045879;28;20493;-50
2022/11/01 05:52:37;;;;;;;2.40;1.73;;;16.80;83.80;;;;;;5059128;28;20564;-51
2022/11/01 05:55:07;;;;;;;1.97;1.87;;;16.80;83.80;;;;;;5046394;28;20445;-51
2022/11/01 05:57:36;;;;;;;5.03;1.90;;;16.80;83.90;;;;;;5058572;28;20482;-50
2022/11/01 06:00:07;;;;;;;3.13;1.70;;;16.80;83.80;;;;;;5064385;28;20498;-52
2022/11/01 06:02:42;;;;;;;2.30;2.10;;;16.80;84.50;;;;;;5056728;28;20868;-51
2022/11/01 06:05:10;;;;;;;2.70;1.63;;;16.80;83.90;;;;;;5062688;28;20439;-52
2022/11/01 06:07:42;;;;;;;2.53;2.23;;;16.80;84.00;;;;;;5066655;28;20474;-51
2022/11/01 06:10:11;;;;;;;2.77;2.30;;;16.80;84.00;;;;;;5049688;28;20977;-51
2022/11/01 06:12:39;;;;;;;2.00;1.70;;;16.80;84.00;;;;;;5045326;28;20474;-50
2022/11/01 06:15:10;;;;;;;2.23;1.90;;;16.80;84.00;;;;;;5057392;28;20794;-49
2022/11/01 06:17:39;;;;;;;4.13;1.80;;;16.80;83.80;;;;;;5052219;28;20553;-52
2022/11/01 06:20:08;;;;;;;2.50;1.97;;;16.80;83.60;;;;;;5052839;28;20465;-51
2022/11/01 06:22:36;;;;;;;2.43;2.20;;;16.80;83.70;;;;;;5053468;28;21023;-54
2022/11/01 06:25:07;;;;;;;1.73;1.63;;;16.80;83.60;;;;;;5071411;28;20438;-52
2022/11/01 06:27:35;;;;;;;2.10;1.90;;;16.80;83.60;;;;;;5064405;28;20482;-50
2022/11/01 06:30:05;;;;;;;2.73;1.53;;;16.80;83.60;;;;;;5063072;28;20466;-50
2022/11/01 06:32:34;;;;;;;2.37;2.17;;;16.80;83.30;;;;;;5054107;28;20900;-52
2022/11/01 06:35:03;;;;;;;1.80;1.50;;;16.80;83.00;;;;;;5057921;28;20442;-51
2022/11/01 06:37:32;;;;;;;2.00;1.80;;;16.80;82.80;;;;;;5053583;28;20477;-52
2022/11/01 06:40:00;;;;;;;1.63;1.53;;;16.80;82.60;;;;;;5072238;28;20511;-51
2022/11/01 06:42:29;;;;;;;2.00;1.50;;;16.80;82.60;;;;;;5097145;23;21062;-70
2022/11/01 06:44:57;;;;;;;1.73;1.60;;;16.80;82.30;;;;;;5043344;28;20521;-70
2022/11/01 06:47:26;;;;;;;2.37;1.87;;;16.80;81.80;;;;;;5062044;28;20519;-70
2022/11/01 06:49:56;;;;;;;2.00;1.80;;;16.80;82.10;;;;;;5068825;28;20458;-70
2022/11/01 06:52:24;;;;;;;2.10;1.80;;;16.80;82.10;;;;;;5050868;28;20469;-70
2022/11/01 06:54:52;;;;;;;3.37;1.80;;;16.80;81.80;;;;;;5046054;28;20448;-70
2022/11/01 06:57:21;;;;;;;2.20;1.20;;;16.80;81.50;;;;;;5062334;28;20545;-70
2022/11/01 06:59:49;;;;;;;1.83;1.63;;;16.80;81.60;;;;;;5044192;28;20488;-70
2022/11/01 07:02:17;;;;;;;1.57;1.47;;;16.80;81.50;;;;;;5068068;28;20862;-70
2022/11/01 07:04:47;;;;;;;2.83;2.03;;;16.80;81.70;;;;;;5054321;28;20435;-70
2022/11/01 07:07:17;;;;;;;1.80;1.70;;;16.70;81.70;;;;;;5066399;28;20490;-70
2022/11/01 07:09:45;;;;;;;2.13;1.93;;;16.70;80.70;;;;;;5066790;28;20573;-70
2022/11/01 07:12:15;;;;;;;1.90;1.70;;;16.80;81.00;;;;;;5042793;28;20463;-70
2022/11/01 07:14:45;;;;;;;2.63;1.90;;;16.80;81.30;;;;;;5072195;28;20442;-70
2022/11/01 07:17:15;;;;;;;2.20;1.77;;;16.80;81.20;;;;;;5068391;28;20543;-70
2022/11/01 07:19:45;;;;;;;1.60;1.50;;;16.70;81.40;;;;;;5052269;28;20454;-70
2022/11/01 07:22:20;;;;;;;2.90;1.77;;;16.80;81.50;;;;;;5067263;28;20458;-70
2022/11/01 07:24:50;;;;;;;1.70;1.53;;;16.80;81.00;;;;;;5062938;28;20438;-70
2022/11/01 07:27:23;;;;;;;4.87;1.43;;;16.70;80.80;;;;;;5056509;28;20474;-70
2022/11/01 07:29:54;;;;;;;1.93;1.80;;;16.70;80.00;;;;;;5063065;28;20536;-70
2022/11/01 07:32:23;;;;;;;1.67;1.57;;;16.70;80.00;;;;;;5050806;28;20481;-70
2022/11/01 07:34:52;;;;;;;3.00;1.63;;;16.70;80.30;;;;;;5058191;28;20872;-70
2022/11/01 07:37:22;;;;;;;1.90;1.70;;;16.80;79.50;;;;;;5049821;28;20459;-70
2022/11/01 07:39:52;;;;;;;1.63;1.43;;;16.70;79.70;;;;;;5045484;28;20945;-70
2022/11/01 07:42:20;;;;;;;2.17;1.53;;;16.70;79.30;;;;;;5061806;28;20470;-69
2022/11/01 07:44:49;;;;;;;2.13;1.60;;;16.70;79.60;;;;;;5032220;28;20446;-72
2022/11/01 07:47:18;;;;;;;2.03;1.87;;;16.70;79.20;;;;;;5047541;28;20473;-72
2022/11/01 07:49:49;;;;;;;2.77;1.23;;;16.70;79.30;;;;;;5068024;28;20465;-73
2022/11/01 07:52:18;;;;;;;3.23;1.57;;;16.70;79.00;;;;;;5067030;28;20553;-73
2022/11/01 07:54:49;;;;;;;1.70;1.60;;;16.70;78.30;;;;;;5058703;28;20444;-70
2022/11/01 07:57:18;;;;;;;1.53;1.40;;;16.80;79.10;;;;;;5060631;28;20474;-72
2022/11/01 08:00:03;;;;;;;1.87;1.30;;;16.70;79.30;;;;;;5069394;28;20438;-73
2022/11/01 08:03:18;;;;;;;3.60;1.90;;;16.80;79.00;;;;;;5044838;28;20466;-72
2022/11/01 08:06:21;;;;;;;3.00;1.87;;;16.80;78.00;;;;;;5059306;28;20438;-71
2022/11/01 08:09:10;;;;;;;3.47;1.70;;;16.70;78.50;;;;;;5067330;28;20454;-71
2022/11/01 08:12:45;;;;;;;1.50;1.40;;;16.80;78.70;;;;;;5047699;28;20451;-72
2022/11/01 08:15:24;;;;;;;2.03;1.90;;;16.70;78.90;;;;;;5061872;28;20450;-72
2022/11/01 08:18:12;;;;;;;1.70;1.37;;;16.70;79.10;;;;;;5066425;28;20462;-73
2022/11/01 08:21:20;;;;;;;1.73;1.43;;;16.80;78.80;;;;;;5046422;28;21040;-72
2022/11/01 08:24:17;;;;;;;1.73;1.27;;;16.70;78.50;;;;;;5049930;28;21039;-73
2022/11/01 08:27:12;;;;;;;2.20;1.60;;;16.80;78.60;;;;;;5048152;28;20447;-73
2022/11/01 08:30:22;;;;;;;1.70;1.30;;;16.80;78.60;;;;;;5067517;28;21274;-72
2022/11/01 08:33:17;;;;;;;2.93;1.60;;;16.80;78.60;;;;;;5063733;28;20562;-72
2022/11/01 08:36:08;;;;;;;2.70;1.30;;;16.80;78.30;;;;;;5062956;28;20526;-72
2022/11/01 08:42:05;;;;;;;1.73;1.23;;;16.80;78.70;;;;;;5054211;28;20489;-72
2022/11/01 08:48:10;;;;;;;3.33;1.77;;;16.80;78.40;;;;;;5055301;28;20453;-72
2022/11/01 08:50:59;;;;;;;3.47;1.33;;;16.80;78.40;;;;;;5033136;28;20470;-72
2022/11/01 08:53:40;;;;;;;2.20;1.40;;;16.80;77.90;;;;;;5050140;28;20469;-73
2022/11/01 08:56:14;;;;;;;1.50;1.17;;;16.90;78.00;;;;;;5031700;28;21039;-68
2022/11/01 08:58:43;;;;;;;2.10;1.20;;;16.80;77.30;;;;;;5036900;28;20536;-69
2022/11/01 09:01:13;;;;;;;6.20;1.37;;;16.90;77.30;;;;;;5056176;28;20973;-70
2022/11/01 09:03:44;;;;;;;1.70;1.10;;;16.90;77.50;;;;;;5048009;28;20435;-70
2022/11/01 09:06:14;;;;;;;4.97;1.60;;;16.80;77.30;;;;;;5066971;28;20442;-69
2022/11/01 09:08:44;;;;;;;1.53;1.17;;;16.90;77.20;;;;;;5065435;28;20482;-70
2022/11/01 09:11:14;;;;;;;1.23;1.10;;;16.90;77.40;;;;;;5057409;28;20846;-72
2022/11/01 09:13:43;;;;;;;2.03;1.20;;;16.90;77.30;;;;;;5049107;28;20505;-73
2022/11/01 09:16:13;;;;;;;3.10;1.60;;;16.90;77.40;;;;;;5067928;28;20448;-73
2022/11/01 09:18:45;;;;;;;2.77;1.20;;;16.90;77.30;;;;;;5064864;28;20458;-73
2022/11/01 09:21:15;;;;;;;3.30;1.33;;;16.90;77.30;;;;;;5039849;28;20504;-72
2022/11/01 09:23:46;;;;;;;1.60;1.50;;;16.90;77.10;;;;;;5066067;28;20442;-73
2022/11/01 09:26:15;;;;;;;1.33;1.10;;;16.90;77.10;;;;;;5066420;28;20557;-72
2022/11/01 09:28:46;;;;;;;2.20;1.40;;;16.90;77.50;;;;;;5047397;28;20549;-73
2022/11/01 09:31:15;;;;;;;6.47;1.80;;;16.90;77.60;;;;;;5066614;28;20501;-76
2022/11/01 09:33:55;;;;;;;6.30;2.27;;;16.90;71.50;;;;;;5060165;28;20467;-76
2022/11/01 09:36:26;;;;;;;3.67;1.40;;;17.00;65.30;;;;;;5065418;28;20454;-72
2022/11/01 09:38:58;;;;;;;2.40;1.70;;;17.10;66.70;;;;;;5062928;28;20458;-71
2022/11/01 09:41:37;;;;;;;3.40;1.40;;;17.10;70.70;;;;;;5063384;28;20482;-71
2022/11/01 09:44:16;;;;;;;2.80;1.27;;;17.10;72.10;;;;;;5059482;28;20492;-71
2022/11/01 09:46:49;;;;;;;3.30;1.20;;;17.10;71.90;;;;;;5055527;28;20804;-73
2022/11/01 09:49:23;;;;;;;1.53;1.00;;;17.00;72.60;;;;;;5058759;28;20465;-71
2022/11/01 09:51:53;;;;;;;2.17;1.20;;;17.00;72.70;;;;;;5052411;28;20560;-71
2022/11/01 09:54:24;;;;;;;2.97;1.00;;;17.00;72.90;;;;;;5063830;28;20480;-73
2022/11/01 09:57:05;;;;;;;4.00;1.57;;;17.00;73.60;;;;;;5072793;28;21047;-70
2022/11/01 09:59:40;;;;;;;3.43;1.40;;;17.00;73.70;;;;;;5071066;28;21039;-72
2022/11/01 10:02:29;;;;;;;3.10;1.57;;;17.00;73.90;;;;;;5054236;28;20990;-73
2022/11/01 10:05:12;;;;;;;2.43;1.00;;;17.00;73.70;;;;;;5083315;28;20430;-72
2022/11/01 10:07:56;;;;;;;2.40;1.90;;;17.00;74.20;;;;;;5076211;28;20996;-72
2022/11/01 10:10:37;;;;;;;1.77;1.47;;;17.00;74.10;;;;;;5054695;28;20492;-72
2022/11/01 10:13:25;;;;;;;3.13;1.70;;;17.00;74.20;;;;;;5059579;28;20558;-72
2022/11/01 10:16:03;;;;;;;2.43;1.27;;;17.00;74.30;;;;;;5046497;28;20540;-73
2022/11/01 10:18:37;;;;;;;4.50;1.30;;;17.00;74.70;;;;;;5052331;28;20466;-72
2022/11/01 10:21:13;;;;;;;2.90;1.67;;;17.00;74.60;;;;;;5052339;28;20673;-73
2022/11/01 10:23:49;;;;;;;1.07;0.97;;;17.00;74.60;;;;;;5060658;28;20946;-72
2022/11/01 10:26:23;;;;;;;2.20;1.13;;;17.00;74.40;;;;;;5060623;28;20890;-73
2022/11/01 10:29:00;;;;;;;3.13;1.17;;;17.00;74.50;;;;;;5039482;28;20574;-72
2022/11/01 10:31:46;;;;;;;3.90;1.40;;;17.00;74.70;;;;;;5065126;28;20446;-72
2022/11/01 10:34:39;;;;;;;2.87;1.20;;;17.00;74.70;;;;;;5035447;28;20438;-72
2022/11/01 10:37:29;;;;;;;2.37;1.47;;;17.00;75.10;;;;;;5059736;28;20553;-72
2022/11/01 10:40:32;;;;;;;3.87;1.30;;;17.00;75.10;;;;;;5070926;28;20465;-72
2022/11/01 10:43:11;;;;;;;4.27;1.67;;;17.00;75.10;;;;;;5032116;28;20509;-72
2022/11/01 10:45:46;;;;;;;4.43;1.20;;;17.00;75.00;;;;;;5062761;28;20454;-69
2022/11/01 10:48:26;;;;;;;1.10;0.73;;;17.00;75.00;;;;;;5065028;28;20931;-69
2022/11/01 10:51:02;;;;;;;1.70;1.00;;;16.90;75.00;;;;;;5055964;28;20869;-69
2022/11/01 10:53:39;;;;;;;4.10;0.87;;;17.00;74.70;;;;;;5069576;28;20503;-69
2022/11/01 10:56:15;;;;;;;3.10;1.17;;;16.90;74.90;;;;;;5056984;28;20430;-72
2022/11/01 10:58:57;;;;;;;1.33;1.13;;;16.90;75.20;;;;;;5069008;28;20968;-69
2022/11/01 11:01:30;;;;;;;2.27;1.17;;;16.90;75.00;;;;;;5067535;28;20466;-69
2022/11/01 11:04:06;;;;;;;1.90;1.30;;;17.00;75.20;;;;;;5067708;28;20842;-69
2022/11/01 11:06:37;;;;;;;2.23;1.10;;;17.00;74.80;;;;;;5062655;28;20873;-69
2022/11/01 11:09:18;;;;;;;2.63;1.20;;;16.90;75.30;;;;;;5042620;28;20539;-69
2022/11/01 11:11:50;;;;;;;1.70;1.00;;;16.90;75.10;;;;;;5065002;28;20535;-69
2022/11/01 11:14:21;;;;;;;1.63;1.00;;;17.00;75.10;;;;;;5066769;28;20533;-69
2022/11/01 11:16:54;;;;;;;1.57;0.87;;;16.90;75.00;;;;;;5067951;28;20492;-72
2022/11/01 11:19:32;;;;;;;1.90;1.10;;;17.00;74.80;;;;;;5063825;28;20824;-72
2022/11/01 11:22:07;;;;;;;2.07;0.90;;;17.00;75.20;;;;;;5069123;28;20472;-72
2022/11/01 11:24:40;;;;;;;2.23;1.27;;;17.00;74.80;;;;;;5064014;28;20438;-69
2022/11/01 11:27:17;;;;;;;4.77;1.17;;;17.00;74.60;;;;;;5066765;28;20524;-69
2022/11/01 11:29:59;;;;;;;3.20;1.13;;;17.00;74.50;;;;;;5052291;28;20454;-69
2022/11/01 11:36:06;;;;;;;2.93;1.40;;;17.00;74.80;;;;;;5066504;28;20445;-69
2022/11/01 11:39:01;;;;;;;3.13;1.30;;;17.00;74.60;;;;;;5065636;28;20463;-69
2022/11/01 11:42:33;;;;;;;2.00;1.30;;;17.00;74.90;;;;;;5053396;28;20633;-69
2022/11/01 11:45:36;;;;;;;3.67;1.30;;;17.00;74.70;;;;;;5042044;28;20533;-69
2022/11/01 11:48:31;;;;;;;1.43;0.93;;;17.00;75.30;;;;;;5031384;28;20493;-69
2022/11/01 11:54:14;;;;;;;2.37;1.00;;;17.00;75.30;;;;;;5066935;28;20984;-72
2022/11/01 11:56:45;;;;;;;2.40;1.03;;;16.90;74.30;;;;;;5050221;28;20485;-72
2022/11/01 11:59:24;;;;;;;2.90;1.40;;;17.00;74.70;;;;;;5039565;28;20466;-72
2022/11/01 12:02:02;;;;;;;2.70;1.03;;;17.00;75.10;;;;;;5049190;28;20434;-69
2022/11/01 12:04:38;;;;;;;3.17;1.03;;;17.00;75.30;;;;;;5047233;28;20941;-69
2022/11/01 12:07:23;;;;;;;1.27;1.00;;;17.00;75.20;;;;;;5059534;28;20550;-69
2022/11/01 12:09:54;;;;;;;1.63;1.03;;;17.00;75.10;;;;;;5077388;28;20458;-69
2022/11/01 12:12:26;;;;;;;1.67;1.17;;;17.00;74.90;;;;;;5036282;28;20506;-69
2022/11/01 12:14:57;;;;;;;3.23;1.03;;;17.00;74.50;;;;;;5043256;28;20435;-69
2022/11/01 12:17:31;;;;;;;2.10;1.20;;;17.00;74.50;;;;;;5042893;28;20470;-69
2022/11/01 12:20:09;;;;;;;1.80;0.93;;;17.00;74.80;;;;;;5056457;28;20454;-69
2022/11/01 12:22:42;;;;;;;3.77;1.20;;;17.00;74.70;;;;;;5034549;28;20471;-69
2022/11/01 12:25:16;;;;;;;2.37;1.00;;;17.00;74.80;;;;;;5064429;28;20473;-69
2022/11/01 12:28:01;;;;;;;4.80;1.10;;;17.00;74.80;;;;;;5034647;28;21058;-69
2022/11/01 12:30:33;;;;;;;4.23;1.53;;;17.00;74.80;;;;;;5044886;28;21020;-69
2022/11/01 12:33:14;;;;;;;2.93;1.30;;;17.00;71.50;;;;;;5064889;28;20543;-70
2022/11/01 12:35:46;;;;;;;3.10;1.00;;;17.00;73.90;;;;;;5064539;28;20438;-72
2022/11/01 12:38:39;;;;;;;2.63;1.40;;;17.00;74.40;;;;;;5065428;28;20489;-72
2022/11/01 12:41:21;;;;;;;1.37;1.03;;;17.00;74.40;;;;;;5051643;28;20438;-70
2022/11/01 12:43:58;;;;;;;2.93;1.27;;;17.00;74.80;;;;;;5036460;28;20685;-51
2022/11/01 12:46:34;;;;;;;1.57;0.80;;;17.00;75.20;;;;;;5042879;28;20443;-51
2022/11/01 12:49:12;;;;;;;2.20;1.00;;;17.00;74.80;;;;;;5005766;28;20527;-50
2022/11/01 12:51:49;;;;;;;2.43;1.87;;;17.00;74.70;;;;;;5027764;28;20484;-50
2022/11/01 12:54:24;;;;;;;1.87;0.97;;;17.00;74.20;;;;;;5032209;28;20526;-49
2022/11/01 12:56:57;;;;;;;1.03;0.77;;;17.00;74.60;;;;;;4995650;28;20445;-50
2022/11/01 12:59:32;;;;;;;1.60;1.00;;;17.00;74.50;;;;;;5023241;28;20453;-50
2022/11/01 13:02:17;;;;;;;2.23;1.40;;;17.00;74.60;;;;;;5014479;28;20484;-49
2022/11/01 13:04:56;;;;;;;2.40;1.53;;;17.00;74.80;;;;;;5025797;28;20429;-50
2022/11/01 13:07:34;;;;;;;3.30;1.57;;;17.00;74.60;;;;;;5004572;28;20468;-51
2022/11/01 13:10:14;;;;;;;1.67;0.97;;;17.00;75.00;;;;;;5025450;28;20465;-50
2022/11/01 13:12:52;;;;;;;1.73;0.97;;;17.00;74.00;;;;;;5004989;28;20473;-50
2022/11/01 13:15:25;;;;;;;2.87;1.73;;;17.00;74.10;;;;;;5009420;28;20891;-50
2022/11/01 13:18:04;;;;;;;2.97;1.40;;;17.00;73.50;;;;;;5024423;28;20536;-48
2022/11/01 13:20:46;;;;;;;2.43;1.30;;;17.00;73.40;;;;;;5010704;28;20536;-49
2022/11/01 13:23:27;;;;;;;2.70;2.30;;;17.00;73.90;;;;;;5017341;28;20516;-49
2022/11/01 13:26:01;;;;;;;3.73;1.50;;;17.10;73.20;;;;;;5026162;28;20456;-49
2022/11/01 13:28:51;;;;;;;1.97;1.20;;;17.10;73.50;;;;;;5024891;28;20860;-50
2022/11/01 13:31:30;;;;;;;2.03;1.30;;;17.10;73.50;;;;;;5027252;28;20473;-51
2022/11/01 13:34:12;;;;;;;3.00;1.53;;;17.10;74.10;;;;;;5026103;28;20528;-50
2022/11/01 13:36:46;;;;;;;1.50;1.10;;;17.10;74.20;;;;;;5024481;28;20849;-50
2022/11/01 13:39:25;;;;;;;3.00;1.60;;;17.10;74.10;;;;;;5010016;28;20515;-50
2022/11/01 13:42:02;;;;;;;5.83;1.50;;;17.10;73.70;;;;;;5013592;28;20998;-50
2022/11/01 13:44:37;;;;;;;2.53;1.13;;;17.10;73.10;;;;;;5020440;28;20453;-49
2022/11/01 13:47:20;;;;;;;4.00;1.50;;;17.10;73.80;;;;;;4999695;28;20890;-48
2022/11/01 13:50:18;;;;;;;2.73;1.60;;;17.10;73.40;;;;;;5008673;28;21055;-49
2022/11/01 13:52:53;;;;;;;2.33;1.10;;;17.10;73.60;;;;;;5010237;28;21019;-49